KCXY

Capital City Airport

Harrisburg, Pennsylvania, USA
METAR KCXY 271056Z 26005KT 10SM FEW049 24/20 A2990 RMK AO2 SLP123 T02390200
Observed Flight Rules
May-27 @ 10:56 UTC (an hour ago) Visual Flight Rules
Wind Visibility Clouds
260° at 5 knots 10 miles
  • Few at 4,900' AGL
Temperatures Readings
Current 24°C / 75°F
Dewpoint 20°C / 68°F
Humidity 78%
Altimeter 29.9" Hg
Pressure 1012.3 hPa
Elevation 106
METAR KCXY 271056Z 26005KT 10SM FEW049 24/20 A2990 RMK AO2 SLP123 T02390200
Observed Flight Rules
May-27 @ 10:56 UTC
(an hour ago)
VFR
Wind Visibility
260° at 5 knots 10 miles
Clouds
  • Few at 4,900' AGL
Temperature Dewpoint
24°C / 75°F 20°C / 68°F
Humidity Altimeter Pressure
78% 29.9" Hg 1012.3 hPa